Skip Navigation Links
NOAA logo - Click to go to the NOAA homepage
NOAA's National Weather Service
Alaska Aviation Weather Unit
  NWS logo - Click to go to the NWS homepage
Left Navbar Graphic     03 AKDT = 11 GMT

   
NOAA is celebrating 200 years of science, service, and stewardship. Visit the NOAA 200th celebration Web site to learn more.
USA.gov is the U.S. Government's official Web portal to all Federal, state and local government Web resources and services.
Facebook
NWS on Facebook

AAWU Home :: Display TAF Add Bookmark
TAF PACV 290522Z 2906/3006 09006KT P6SM -RA SCT015 BKN025
      TEMPO 2906/2910 09010G20KT 4SM -RA BR BKN015
     FM292100 09008KT 4SM -RASN BR OVC012=

METAR PACV 290553Z 08006KT 10SM -RA FEW024 BKN029 OVC035 03/02 A2955 RMK AO2 SLP007 4/005 P0003 60037 T00280017 10033 20011 50004= METAR PACV 290653Z 09004KT 10SM -RA BKN026 OVC036 03/02 A2955 RMK AO2 SLP006 P0001 T00280022= METAR PACV 290753Z 09007KT 10SM -RA BKN026 OVC033 03/02 A2955 RMK AO2 SLP006 P0002 T00280017= METAR PACV 290853Z 10006KT 10SM -RA BKN026 OVC036 03/02 A2954 RMK AO2 SLP003 P0001 60004 T00280017 400440000 58004= METAR PACV 290953Z 08006KT 10SM -RA BKN024 OVC032 03/02 A2952 RMK AO2 SLP998 P0001 T00280017= SPECI PACV 291030Z 09008KT 10SM -RA OVC030 03/01 A2952 RMK AO2 P0001 T00330011= SPECI PACV 291050Z 08007KT 10SM -RA OVC029 03/01 A2951 RMK AO2 P0001= METAR PACV 291053Z 10008KT 10SM -RA OVC027 03/01 A2951 RMK AO2 SLP994 P0002 T00280011=
 Alaska TAF Map

NOAA's National Weather Service
Alaska Aviation Weather Unit
6930 Sand Lake Road
Anchorage, AK 99502-1845
Disclaimer
Credits
Glossary
Privacy Policy
About Us
Career Opportunities
Contact AAWU Internet Services Site last modified: April, 17th 2012